Página principal
METAR-TAF:

METAR-TAF

Aeroportos :

El Salvador, El Salvador

Aeroporto Internacional de El Salvador

latitude: 13-26N, longitude: 089-03W, altura: 25 m

Observação actual do tempo

O boletim foi feito há 40 minutos, às 22:50 UTC
Vento 7 kt de oes-sudoeste
Temperatura 28°C
Humidade 58%
Pressão 1012 hPa
Visibilidade 10 km ou mais
sem nuvens abaixo de 1500 metros e sem cumulonimbus

METAR: MSLP 122250Z 25007KT CAVOK 28/19 Q1011 A2987 NOSIG

Hora: 17:30 (23:30 UTC)

Previsão

O boletim foi feito há 8 horas e 5 minutos, às 15:25 UTC
Previsão válida de 12 às 18 UTC a 13 às 18 UTC
Vento 12 kt de norte com rajadas de 22 kt
Visibilidade 10 km ou mais
sem nuvens abaixo de 1500 metros e sem cumulonimbus
Temporariamente
de 12 às 21 UTC a 12 às 24 UTC
Vento 6 kt de su-sudoeste

TAF: MSLP 121525Z 1218/1318 01012G22KT CAVOK TX31/1219Z TN23/1311Z TEMPO 1221/1224 21006KT

Observações e previsões do tempo de mais de 4000 aeroportos (mensagens METAR e TAF).

As estações disponíveis são os pontos amarelos e vermelhos sobre o mapa.

Mova o rato sobre o mapa para ver o nome da estação.

Depois clique no ponto para visualizar as observações e previsões meteorológicas.

Para alterar o mapa : clique nos botões verdes com uma cruz preta para aumentar o zoom; no botão verde com uma pitada de zoom; ou nas setas verdes para mapas adjacentes.


METAR-TAF: